sensor_id;sensor_type;location;lat;lon;timestamp;P1;durP1;ratioP1;P2;durP2;ratioP2
52494;SDS011;38405;53.212;5.660;2022-10-22T00:02:17;15.40;;;8.60;;
52494;SDS011;38405;53.212;5.660;2022-10-22T00:04:48;11.50;;;7.25;;
52494;SDS011;38405;53.212;5.660;2022-10-22T00:07:15;11.77;;;7.57;;
52494;SDS011;38405;53.212;5.660;2022-10-22T00:09:41;13.00;;;7.43;;
52494;SDS011;38405;53.212;5.660;2022-10-22T00:12:07;16.33;;;7.82;;
52494;SDS011;38405;53.212;5.660;2022-10-22T00:14:33;14.65;;;8.07;;
52494;SDS011;38405;53.212;5.660;2022-10-22T00:16:59;13.65;;;7.93;;
52494;SDS011;38405;53.212;5.660;2022-10-22T00:19:25;10.73;;;8.00;;
52494;SDS011;38405;53.212;5.660;2022-10-22T00:21:51;15.93;;;8.95;;
52494;SDS011;38405;53.212;5.660;2022-10-22T00:24:17;16.98;;;7.75;;
52494;SDS011;38405;53.212;5.660;2022-10-22T00:26:42;17.92;;;8.40;;
52494;SDS011;38405;53.212;5.660;2022-10-22T00:29:08;20.90;;;9.18;;
52494;SDS011;38405;53.212;5.660;2022-10-22T00:31:33;16.42;;;8.73;;
52494;SDS011;38405;53.212;5.660;2022-10-22T00:33:59;14.07;;;8.07;;
52494;SDS011;38405;53.212;5.660;2022-10-22T00:36:25;15.70;;;8.75;;
52494;SDS011;38405;53.212;5.660;2022-10-22T00:38:51;21.08;;;8.23;;
52494;SDS011;38405;53.212;5.660;2022-10-22T00:41:17;15.45;;;8.55;;
52494;SDS011;38405;53.212;5.660;2022-10-22T00:43:57;13.90;;;8.30;;
52494;SDS011;38405;53.212;5.660;2022-10-22T00:46:24;13.32;;;7.93;;
52494;SDS011;38405;53.212;5.660;2022-10-22T00:48:50;15.88;;;8.35;;
52494;SDS011;38405;53.212;5.660;2022-10-22T00:51:17;15.45;;;8.95;;
52494;SDS011;38405;53.212;5.660;2022-10-22T00:53:49;21.58;;;8.88;;
52494;SDS011;38405;53.212;5.660;2022-10-22T00:56:20;22.55;;;9.10;;
52494;SDS011;38405;53.212;5.660;2022-10-22T00:58:48;23.70;;;9.77;;
52494;SDS011;38405;53.212;5.660;2022-10-22T01:01:20;21.70;;;9.02;;
52494;SDS011;38405;53.212;5.660;2022-10-22T01:03:48;22.92;;;9.80;;
52494;SDS011;38405;53.212;5.660;2022-10-22T01:06:33;20.63;;;10.38;;
52494;SDS011;38405;53.212;5.660;2022-10-22T01:16:33;22.73;;;11.02;;
52494;SDS011;38405;53.212;5.660;2022-10-22T01:22:04;15.75;;;10.32;;
52494;SDS011;38405;53.212;5.660;2022-10-22T01:29:50;19.58;;;10.13;;
52494;SDS011;38405;53.212;5.660;2022-10-22T01:32:22;18.70;;;10.25;;
52494;SDS011;38405;53.212;5.660;2022-10-22T01:34:59;22.70;;;10.40;;
52494;SDS011;38405;53.212;5.660;2022-10-22T01:37:28;24.45;;;11.43;;
52494;SDS011;38405;53.212;5.660;2022-10-22T01:39:58;21.70;;;11.00;;
52494;SDS011;38405;53.212;5.660;2022-10-22T01:42:25;21.77;;;11.93;;
52494;SDS011;38405;53.212;5.660;2022-10-22T01:44:51;24.15;;;11.73;;
52494;SDS011;38405;53.212;5.660;2022-10-22T01:55:33;24.50;;;12.95;;
52494;SDS011;38405;53.212;5.660;2022-10-22T02:00:56;25.60;;;12.57;;
52494;SDS011;38405;53.212;5.660;2022-10-22T02:03:31;26.33;;;11.65;;
52494;SDS011;38405;53.212;5.660;2022-10-22T02:06:03;24.75;;;11.50;;
52494;SDS011;38405;53.212;5.660;2022-10-22T02:08:37;23.50;;;11.80;;
52494;SDS011;38405;53.212;5.660;2022-10-22T02:11:03;21.52;;;12.07;;
52494;SDS011;38405;53.212;5.660;2022-10-22T02:13:32;19.95;;;11.80;;
52494;SDS011;38405;53.212;5.660;2022-10-22T02:16:03;22.48;;;12.25;;
52494;SDS011;38405;53.212;5.660;2022-10-22T02:18:32;24.52;;;12.82;;
52494;SDS011;38405;53.212;5.660;2022-10-22T02:21:01;21.50;;;11.30;;
52494;SDS011;38405;53.212;5.660;2022-10-22T02:23:28;26.48;;;12.57;;
52494;SDS011;38405;53.212;5.660;2022-10-22T02:26:01;22.88;;;11.90;;
52494;SDS011;38405;53.212;5.660;2022-10-22T02:28:34;22.17;;;11.20;;
52494;SDS011;38405;53.212;5.660;2022-10-22T02:31:30;21.77;;;10.90;;
52494;SDS011;38405;53.212;5.660;2022-10-22T02:33:57;24.85;;;11.70;;
52494;SDS011;38405;53.212;5.660;2022-10-22T02:36:28;30.33;;;10.95;;
52494;SDS011;38405;53.212;5.660;2022-10-22T02:38:55;20.85;;;10.45;;
52494;SDS011;38405;53.212;5.660;2022-10-22T02:41:20;28.65;;;12.23;;
52494;SDS011;38405;53.212;5.660;2022-10-22T02:43:48;22.63;;;10.55;;
52494;SDS011;38405;53.212;5.660;2022-10-22T02:46:17;21.83;;;11.65;;
52494;SDS011;38405;53.212;5.660;2022-10-22T02:48:43;22.10;;;11.18;;
52494;SDS011;38405;53.212;5.660;2022-10-22T02:51:08;19.13;;;10.00;;
52494;SDS011;38405;53.212;5.660;2022-10-22T02:53:34;18.75;;;10.35;;
52494;SDS011;38405;53.212;5.660;2022-10-22T02:55:59;19.75;;;9.98;;
52494;SDS011;38405;53.212;5.660;2022-10-22T02:58:25;22.30;;;9.95;;
52494;SDS011;38405;53.212;5.660;2022-10-22T03:00:51;18.85;;;10.30;;
52494;SDS011;38405;53.212;5.660;2022-10-22T03:03:16;21.35;;;10.40;;
52494;SDS011;38405;53.212;5.660;2022-10-22T03:05:42;22.08;;;9.88;;
52494;SDS011;38405;53.212;5.660;2022-10-22T03:08:07;21.48;;;9.73;;
52494;SDS011;38405;53.212;5.660;2022-10-22T03:10:33;18.02;;;9.68;;
52494;SDS011;38405;53.212;5.660;2022-10-22T03:12:59;21.35;;;10.35;;
52494;SDS011;38405;53.212;5.660;2022-10-22T03:15:24;17.25;;;9.07;;
52494;SDS011;38405;53.212;5.660;2022-10-22T03:17:50;15.38;;;8.90;;
52494;SDS011;38405;53.212;5.660;2022-10-22T03:20:16;18.52;;;9.48;;
52494;SDS011;38405;53.212;5.660;2022-10-22T03:22:41;15.57;;;9.05;;
52494;SDS011;38405;53.212;5.660;2022-10-22T03:25:15;14.00;;;9.73;;
52494;SDS011;38405;53.212;5.660;2022-10-22T03:27:45;23.38;;;9.40;;
52494;SDS011;38405;53.212;5.660;2022-10-22T03:30:11;16.67;;;9.45;;
52494;SDS011;38405;53.212;5.660;2022-10-22T03:32:37;17.55;;;8.18;;
52494;SDS011;38405;53.212;5.660;2022-10-22T03:35:03;15.60;;;8.10;;
52494;SDS011;38405;53.212;5.660;2022-10-22T03:37:29;17.55;;;8.80;;
52494;SDS011;38405;53.212;5.660;2022-10-22T03:39:56;18.52;;;8.23;;
52494;SDS011;38405;53.212;5.660;2022-10-22T03:42:22;14.82;;;8.05;;
52494;SDS011;38405;53.212;5.660;2022-10-22T03:44:48;11.60;;;8.10;;
52494;SDS011;38405;53.212;5.660;2022-10-22T03:47:14;15.13;;;8.43;;
52494;SDS011;38405;53.212;5.660;2022-10-22T03:49:39;19.63;;;9.05;;
52494;SDS011;38405;53.212;5.660;2022-10-22T03:52:09;21.35;;;8.75;;
52494;SDS011;38405;53.212;5.660;2022-10-22T03:54:37;13.75;;;8.60;;
52494;SDS011;38405;53.212;5.660;2022-10-22T03:57:04;15.18;;;8.30;;
52494;SDS011;38405;53.212;5.660;2022-10-22T03:59:34;16.77;;;7.97;;
52494;SDS011;38405;53.212;5.660;2022-10-22T04:02:00;20.10;;;8.18;;
52494;SDS011;38405;53.212;5.660;2022-10-22T04:04:26;15.23;;;8.15;;
52494;SDS011;38405;53.212;5.660;2022-10-22T04:06:52;16.55;;;8.52;;
52494;SDS011;38405;53.212;5.660;2022-10-22T04:09:17;16.75;;;8.45;;
52494;SDS011;38405;53.212;5.660;2022-10-22T04:11:43;13.50;;;7.90;;
52494;SDS011;38405;53.212;5.660;2022-10-22T04:14:09;15.00;;;7.85;;
52494;SDS011;38405;53.212;5.660;2022-10-22T04:16:37;14.05;;;7.57;;
52494;SDS011;38405;53.212;5.660;2022-10-22T04:19:04;15.95;;;7.75;;
52494;SDS011;38405;53.212;5.660;2022-10-22T04:21:30;20.05;;;8.23;;
52494;SDS011;38405;53.212;5.660;2022-10-22T04:23:56;16.40;;;8.27;;
52494;SDS011;38405;53.212;5.660;2022-10-22T04:26:21;15.60;;;7.63;;
52494;SDS011;38405;53.212;5.660;2022-10-22T04:28:48;19.52;;;7.70;;
52494;SDS011;38405;53.212;5.660;2022-10-22T04:31:16;18.42;;;7.50;;
52494;SDS011;38405;53.212;5.660;2022-10-22T04:33:47;14.60;;;7.68;;
52494;SDS011;38405;53.212;5.660;2022-10-22T04:36:16;13.80;;;7.20;;
52494;SDS011;38405;53.212;5.660;2022-10-22T04:38:43;15.85;;;7.53;;
52494;SDS011;38405;53.212;5.660;2022-10-22T04:41:14;20.05;;;7.75;;
52494;SDS011;38405;53.212;5.660;2022-10-22T04:43:41;18.77;;;7.15;;
52494;SDS011;38405;53.212;5.660;2022-10-22T04:46:08;17.02;;;7.65;;
52494;SDS011;38405;53.212;5.660;2022-10-22T04:48:37;11.82;;;6.72;;
52494;SDS011;38405;53.212;5.660;2022-10-22T04:51:04;19.50;;;7.80;;
52494;SDS011;38405;53.212;5.660;2022-10-22T04:53:31;15.02;;;7.80;;
52494;SDS011;38405;53.212;5.660;2022-10-22T04:58:58;13.40;;;7.00;;
52494;SDS011;38405;53.212;5.660;2022-10-22T05:01:27;14.75;;;7.28;;
52494;SDS011;38405;53.212;5.660;2022-10-22T05:03:56;14.70;;;7.10;;
52494;SDS011;38405;53.212;5.660;2022-10-22T05:06:23;15.95;;;6.80;;
52494;SDS011;38405;53.212;5.660;2022-10-22T05:08:54;23.15;;;7.30;;
52494;SDS011;38405;53.212;5.660;2022-10-22T05:11:29;18.80;;;7.63;;
52494;SDS011;38405;53.212;5.660;2022-10-22T05:13:57;17.02;;;7.85;;
52494;SDS011;38405;53.212;5.660;2022-10-22T05:16:24;15.77;;;6.85;;
52494;SDS011;38405;53.212;5.660;2022-10-22T05:18:51;16.92;;;6.70;;
52494;SDS011;38405;53.212;5.660;2022-10-22T05:21:18;14.60;;;6.47;;
52494;SDS011;38405;53.212;5.660;2022-10-22T05:23:44;16.05;;;6.80;;
52494;SDS011;38405;53.212;5.660;2022-10-22T05:26:12;19.35;;;6.47;;
52494;SDS011;38405;53.212;5.660;2022-10-22T05:28:39;23.35;;;6.93;;
52494;SDS011;38405;53.212;5.660;2022-10-22T05:31:05;13.10;;;6.20;;
52494;SDS011;38405;53.212;5.660;2022-10-22T05:33:32;14.40;;;7.07;;
52494;SDS011;38405;53.212;5.660;2022-10-22T05:35:59;16.83;;;6.63;;
52494;SDS011;38405;53.212;5.660;2022-10-22T05:38:26;16.25;;;6.75;;
52494;SDS011;38405;53.212;5.660;2022-10-22T05:41:01;13.65;;;6.10;;
52494;SDS011;38405;53.212;5.660;2022-10-22T05:43:28;18.05;;;5.85;;
52494;SDS011;38405;53.212;5.660;2022-10-22T05:45:54;12.52;;;6.10;;
52494;SDS011;38405;53.212;5.660;2022-10-22T05:48:20;16.65;;;6.50;;
52494;SDS011;38405;53.212;5.660;2022-10-22T05:50:45;12.15;;;6.32;;
52494;SDS011;38405;53.212;5.660;2022-10-22T05:53:15;17.35;;;5.97;;
52494;SDS011;38405;53.212;5.660;2022-10-22T05:55:41;10.63;;;5.93;;
52494;SDS011;38405;53.212;5.660;2022-10-22T05:58:08;15.90;;;5.93;;
52494;SDS011;38405;53.212;5.660;2022-10-22T06:00:34;14.38;;;5.93;;
52494;SDS011;38405;53.212;5.660;2022-10-22T06:03:00;20.13;;;6.25;;
52494;SDS011;38405;53.212;5.660;2022-10-22T06:05:25;18.48;;;6.13;;
52494;SDS011;38405;53.212;5.660;2022-10-22T06:07:51;20.58;;;6.70;;
52494;SDS011;38405;53.212;5.660;2022-10-22T06:10:18;25.35;;;7.13;;
52494;SDS011;38405;53.212;5.660;2022-10-22T06:12:45;15.27;;;6.47;;
52494;SDS011;38405;53.212;5.660;2022-10-22T06:15:12;22.75;;;6.40;;
52494;SDS011;38405;53.212;5.660;2022-10-22T06:17:40;15.20;;;5.78;;
52494;SDS011;38405;53.212;5.660;2022-10-22T06:20:08;11.65;;;6.30;;
52494;SDS011;38405;53.212;5.660;2022-10-22T06:22:34;16.35;;;5.80;;
52494;SDS011;38405;53.212;5.660;2022-10-22T06:24:59;16.80;;;6.25;;
52494;SDS011;38405;53.212;5.660;2022-10-22T06:27:25;13.75;;;6.20;;
52494;SDS011;38405;53.212;5.660;2022-10-22T06:29:50;15.90;;;5.50;;
52494;SDS011;38405;53.212;5.660;2022-10-22T06:32:16;16.25;;;6.38;;
52494;SDS011;38405;53.212;5.660;2022-10-22T06:34:41;14.93;;;6.45;;
52494;SDS011;38405;53.212;5.660;2022-10-22T06:37:08;16.17;;;6.45;;
52494;SDS011;38405;53.212;5.660;2022-10-22T06:39:34;18.10;;;5.97;;
52494;SDS011;38405;53.212;5.660;2022-10-22T06:41:59;14.57;;;5.60;;
52494;SDS011;38405;53.212;5.660;2022-10-22T06:44:25;16.40;;;5.25;;
52494;SDS011;38405;53.212;5.660;2022-10-22T06:46:51;20.98;;;6.82;;
52494;SDS011;38405;53.212;5.660;2022-10-22T06:49:18;12.07;;;5.78;;
52494;SDS011;38405;53.212;5.660;2022-10-22T06:51:44;16.35;;;6.07;;
52494;SDS011;38405;53.212;5.660;2022-10-22T06:54:13;14.43;;;5.68;;
52494;SDS011;38405;53.212;5.660;2022-10-22T06:56:39;12.93;;;5.03;;
52494;SDS011;38405;53.212;5.660;2022-10-22T06:59:04;16.88;;;5.22;;
52494;SDS011;38405;53.212;5.660;2022-10-22T07:01:31;24.10;;;6.18;;
52494;SDS011;38405;53.212;5.660;2022-10-22T07:03:58;17.88;;;5.97;;
52494;SDS011;38405;53.212;5.660;2022-10-22T07:06:25;19.73;;;5.53;;
52494;SDS011;38405;53.212;5.660;2022-10-22T07:08:52;17.30;;;5.40;;
52494;SDS011;38405;53.212;5.660;2022-10-22T07:11:20;13.80;;;5.32;;
52494;SDS011;38405;53.212;5.660;2022-10-22T07:13:57;17.52;;;5.20;;
52494;SDS011;38405;53.212;5.660;2022-10-22T07:16:24;19.67;;;5.43;;
52494;SDS011;38405;53.212;5.660;2022-10-22T07:18:50;13.55;;;5.32;;
52494;SDS011;38405;53.212;5.660;2022-10-22T07:21:16;20.67;;;5.00;;
52494;SDS011;38405;53.212;5.660;2022-10-22T07:23:44;14.55;;;5.32;;
52494;SDS011;38405;53.212;5.660;2022-10-22T07:26:11;13.68;;;4.90;;
52494;SDS011;38405;53.212;5.660;2022-10-22T07:28:39;16.02;;;4.80;;
52494;SDS011;38405;53.212;5.660;2022-10-22T07:31:08;11.85;;;4.90;;
52494;SDS011;38405;53.212;5.660;2022-10-22T07:33:36;14.57;;;4.95;;
52494;SDS011;38405;53.212;5.660;2022-10-22T07:36:03;15.95;;;5.05;;
52494;SDS011;38405;53.212;5.660;2022-10-22T07:38:30;13.27;;;4.03;;
52494;SDS011;38405;53.212;5.660;2022-10-22T07:40:56;13.65;;;5.10;;
52494;SDS011;38405;53.212;5.660;2022-10-22T07:43:22;17.63;;;4.75;;
52494;SDS011;38405;53.212;5.660;2022-10-22T07:45:49;13.07;;;4.72;;
52494;SDS011;38405;53.212;5.660;2022-10-22T07:48:14;21.52;;;4.95;;
52494;SDS011;38405;53.212;5.660;2022-10-22T07:50:41;13.98;;;4.43;;
52494;SDS011;38405;53.212;5.660;2022-10-22T07:53:06;14.13;;;4.70;;
52494;SDS011;38405;53.212;5.660;2022-10-22T07:55:32;8.82;;;4.32;;
52494;SDS011;38405;53.212;5.660;2022-10-22T07:57:58;10.30;;;4.18;;
52494;SDS011;38405;53.212;5.660;2022-10-22T08:00:24;9.95;;;4.30;;
52494;SDS011;38405;53.212;5.660;2022-10-22T08:02:50;22.40;;;4.32;;
52494;SDS011;38405;53.212;5.660;2022-10-22T08:05:15;10.57;;;4.15;;
52494;SDS011;38405;53.212;5.660;2022-10-22T08:07:41;15.02;;;3.88;;
52494;SDS011;38405;53.212;5.660;2022-10-22T08:10:07;8.93;;;3.63;;
52494;SDS011;38405;53.212;5.660;2022-10-22T08:12:34;14.55;;;3.75;;
52494;SDS011;38405;53.212;5.660;2022-10-22T08:15:00;8.77;;;3.70;;
52494;SDS011;38405;53.212;5.660;2022-10-22T08:17:26;8.68;;;3.13;;
52494;SDS011;38405;53.212;5.660;2022-10-22T08:19:52;13.77;;;3.90;;
52494;SDS011;38405;53.212;5.660;2022-10-22T08:22:17;11.68;;;3.67;;
52494;SDS011;38405;53.212;5.660;2022-10-22T08:24:43;9.98;;;3.40;;
52494;SDS011;38405;53.212;5.660;2022-10-22T08:27:09;12.45;;;4.00;;
52494;SDS011;38405;53.212;5.660;2022-10-22T08:29:34;10.57;;;3.20;;
52494;SDS011;38405;53.212;5.660;2022-10-22T08:32:00;13.10;;;3.35;;
52494;SDS011;38405;53.212;5.660;2022-10-22T08:34:28;10.75;;;3.60;;
52494;SDS011;38405;53.212;5.660;2022-10-22T08:36:54;12.52;;;3.30;;
52494;SDS011;38405;53.212;5.660;2022-10-22T08:39:20;12.07;;;3.63;;
52494;SDS011;38405;53.212;5.660;2022-10-22T08:49:41;15.57;;;3.30;;
52494;SDS011;38405;53.212;5.660;2022-10-22T08:52:11;9.88;;;3.55;;
52494;SDS011;38405;53.212;5.660;2022-10-22T08:54:55;16.50;;;3.58;;
52494;SDS011;38405;53.212;5.660;2022-10-22T09:00:04;12.68;;;3.05;;
52494;SDS011;38405;53.212;5.660;2022-10-22T09:08:01;11.05;;;3.42;;
52494;SDS011;38405;53.212;5.660;2022-10-22T09:10:28;10.27;;;2.83;;
52494;SDS011;38405;53.212;5.660;2022-10-22T09:12:59;8.93;;;3.15;;
52494;SDS011;38405;53.212;5.660;2022-10-22T09:15:25;13.82;;;3.17;;
52494;SDS011;38405;53.212;5.660;2022-10-22T09:20:58;12.32;;;3.55;;
52494;SDS011;38405;53.212;5.660;2022-10-22T09:23:48;14.43;;;3.75;;
52494;SDS011;38405;53.212;5.660;2022-10-22T09:26:33;9.52;;;3.72;;
52494;SDS011;38405;53.212;5.660;2022-10-22T09:29:03;13.02;;;3.08;;
52494;SDS011;38405;53.212;5.660;2022-10-22T09:31:29;13.40;;;3.78;;
52494;SDS011;38405;53.212;5.660;2022-10-22T09:33:56;11.52;;;4.03;;
52494;SDS011;38405;53.212;5.660;2022-10-22T09:36:23;9.63;;;3.58;;
52494;SDS011;38405;53.212;5.660;2022-10-22T09:38:50;10.98;;;3.70;;
52494;SDS011;38405;53.212;5.660;2022-10-22T09:41:22;13.73;;;4.15;;
52494;SDS011;38405;53.212;5.660;2022-10-22T09:43:50;14.15;;;3.70;;
52494;SDS011;38405;53.212;5.660;2022-10-22T09:46:17;13.63;;;3.97;;
52494;SDS011;38405;53.212;5.660;2022-10-22T09:48:47;15.13;;;4.00;;
52494;SDS011;38405;53.212;5.660;2022-10-22T09:51:23;15.38;;;3.88;;
52494;SDS011;38405;53.212;5.660;2022-10-22T09:54:00;12.25;;;4.03;;
52494;SDS011;38405;53.212;5.660;2022-10-22T09:56:39;12.15;;;4.10;;
52494;SDS011;38405;53.212;5.660;2022-10-22T09:59:16;12.20;;;3.70;;
52494;SDS011;38405;53.212;5.660;2022-10-22T10:01:43;16.95;;;4.32;;
52494;SDS011;38405;53.212;5.660;2022-10-22T10:04:13;14.55;;;4.25;;
52494;SDS011;38405;53.212;5.660;2022-10-22T10:06:41;14.75;;;4.00;;
52494;SDS011;38405;53.212;5.660;2022-10-22T10:09:16;12.57;;;4.47;;
52494;SDS011;38405;53.212;5.660;2022-10-22T10:11:58;11.57;;;4.15;;
52494;SDS011;38405;53.212;5.660;2022-10-22T10:19:58;16.58;;;3.97;;
52494;SDS011;38405;53.212;5.660;2022-10-22T10:25:56;12.70;;;3.63;;
52494;SDS011;38405;53.212;5.660;2022-10-22T10:36:11;6.43;;;2.80;;
52494;SDS011;38405;53.212;5.660;2022-10-22T10:41:41;10.57;;;3.65;;
52494;SDS011;38405;53.212;5.660;2022-10-22T10:44:32;10.88;;;3.60;;
52494;SDS011;38405;53.212;5.660;2022-10-22T10:49:38;7.50;;;3.47;;
52494;SDS011;38405;53.212;5.660;2022-10-22T11:00:21;6.55;;;3.10;;
52494;SDS011;38405;53.212;5.660;2022-10-22T11:02:57;9.40;;;3.70;;
52494;SDS011;38405;53.212;5.660;2022-10-22T11:05:56;8.75;;;3.78;;
52494;SDS011;38405;53.212;5.660;2022-10-22T11:08:25;10.07;;;3.78;;
52494;SDS011;38405;53.212;5.660;2022-10-22T11:19:00;13.40;;;3.38;;
52494;SDS011;38405;53.212;5.660;2022-10-22T11:21:37;8.85;;;3.25;;
52494;SDS011;38405;53.212;5.660;2022-10-22T11:24:20;11.77;;;3.30;;
52494;SDS011;38405;53.212;5.660;2022-10-22T11:26:59;12.65;;;3.58;;
52494;SDS011;38405;53.212;5.660;2022-10-22T11:29:39;13.30;;;3.90;;
52494;SDS011;38405;53.212;5.660;2022-10-22T11:32:11;10.60;;;3.70;;
52494;SDS011;38405;53.212;5.660;2022-10-22T11:37:12;11.07;;;3.50;;
52494;SDS011;38405;53.212;5.660;2022-10-22T11:39:44;6.60;;;2.75;;
52494;SDS011;38405;53.212;5.660;2022-10-22T11:55:51;10.65;;;2.90;;
52494;SDS011;38405;53.212;5.660;2022-10-22T12:04:13;8.05;;;1.92;;
52494;SDS011;38405;53.212;5.660;2022-10-22T12:06:54;6.18;;;2.10;;
52494;SDS011;38405;53.212;5.660;2022-10-22T12:09:26;10.02;;;2.35;;
52494;SDS011;38405;53.212;5.660;2022-10-22T12:12:04;10.82;;;2.13;;
52494;SDS011;38405;53.212;5.660;2022-10-22T12:14:38;8.13;;;2.40;;
52494;SDS011;38405;53.212;5.660;2022-10-22T12:17:20;6.90;;;1.67;;
52494;SDS011;38405;53.212;5.660;2022-10-22T12:19:50;11.00;;;2.42;;
52494;SDS011;38405;53.212;5.660;2022-10-22T12:22:31;9.93;;;2.15;;
52494;SDS011;38405;53.212;5.660;2022-10-22T12:25:01;8.77;;;2.05;;
52494;SDS011;38405;53.212;5.660;2022-10-22T12:27:39;12.20;;;2.15;;
52494;SDS011;38405;53.212;5.660;2022-10-22T12:32:43;8.45;;;1.80;;
52494;SDS011;38405;53.212;5.660;2022-10-22T12:35:20;5.03;;;1.58;;
52494;SDS011;38405;53.212;5.660;2022-10-22T12:37:49;11.98;;;2.00;;
52494;SDS011;38405;53.212;5.660;2022-10-22T12:40:20;8.68;;;2.10;;
52494;SDS011;38405;53.212;5.660;2022-10-22T12:42:58;9.85;;;2.15;;
52494;SDS011;38405;53.212;5.660;2022-10-22T12:45:27;10.18;;;2.17;;
52494;SDS011;38405;53.212;5.660;2022-10-22T12:47:55;14.90;;;2.38;;
52494;SDS011;38405;53.212;5.660;2022-10-22T12:50:51;14.70;;;2.47;;
52494;SDS011;38405;53.212;5.660;2022-10-22T12:53:29;14.57;;;2.25;;
52494;SDS011;38405;53.212;5.660;2022-10-22T12:56:00;10.07;;;2.17;;
52494;SDS011;38405;53.212;5.660;2022-10-22T12:58:28;9.90;;;2.33;;
52494;SDS011;38405;53.212;5.660;2022-10-22T13:01:03;11.18;;;2.33;;
52494;SDS011;38405;53.212;5.660;2022-10-22T13:03:32;8.02;;;1.50;;
52494;SDS011;38405;53.212;5.660;2022-10-22T13:08:43;14.35;;;2.20;;
52494;SDS011;38405;53.212;5.660;2022-10-22T13:11:19;8.50;;;1.75;;
52494;SDS011;38405;53.212;5.660;2022-10-22T13:13:47;8.35;;;1.63;;
52494;SDS011;38405;53.212;5.660;2022-10-22T13:16:14;8.68;;;1.77;;
52494;SDS011;38405;53.212;5.660;2022-10-22T13:18:48;7.55;;;1.92;;
52494;SDS011;38405;53.212;5.660;2022-10-22T13:21:26;10.82;;;1.77;;
52494;SDS011;38405;53.212;5.660;2022-10-22T13:24:02;14.48;;;2.03;;
52494;SDS011;38405;53.212;5.660;2022-10-22T13:26:49;6.90;;;1.42;;
52494;SDS011;38405;53.212;5.660;2022-10-22T13:29:18;5.90;;;1.37;;
52494;SDS011;38405;53.212;5.660;2022-10-22T13:31:46;5.18;;;1.13;;
52494;SDS011;38405;53.212;5.660;2022-10-22T13:34:15;3.58;;;1.20;;
52494;SDS011;38405;53.212;5.660;2022-10-22T13:36:43;9.20;;;1.45;;
52494;SDS011;38405;53.212;5.660;2022-10-22T13:39:16;5.38;;;1.10;;
52494;SDS011;38405;53.212;5.660;2022-10-22T13:41:43;6.40;;;1.20;;
52494;SDS011;38405;53.212;5.660;2022-10-22T13:44:09;7.47;;;1.30;;
52494;SDS011;38405;53.212;5.660;2022-10-22T13:46:34;7.18;;;1.85;;
52494;SDS011;38405;53.212;5.660;2022-10-22T13:49:06;8.45;;;1.92;;
52494;SDS011;38405;53.212;5.660;2022-10-22T13:51:42;5.68;;;1.30;;
52494;SDS011;38405;53.212;5.660;2022-10-22T13:54:09;7.57;;;1.85;;
52494;SDS011;38405;53.212;5.660;2022-10-22T13:56:42;6.72;;;1.40;;
52494;SDS011;38405;53.212;5.660;2022-10-22T13:59:08;8.35;;;1.60;;
52494;SDS011;38405;53.212;5.660;2022-10-22T14:01:35;13.70;;;1.55;;
52494;SDS011;38405;53.212;5.660;2022-10-22T14:04:02;8.43;;;1.85;;
52494;SDS011;38405;53.212;5.660;2022-10-22T14:06:29;6.28;;;1.20;;
52494;SDS011;38405;53.212;5.660;2022-10-22T14:08:59;7.70;;;1.50;;
52494;SDS011;38405;53.212;5.660;2022-10-22T14:11:28;4.97;;;1.33;;
52494;SDS011;38405;53.212;5.660;2022-10-22T14:13:57;13.68;;;2.08;;
52494;SDS011;38405;53.212;5.660;2022-10-22T14:16:23;14.45;;;2.53;;
52494;SDS011;38405;53.212;5.660;2022-10-22T14:18:51;14.00;;;1.90;;
52494;SDS011;38405;53.212;5.660;2022-10-22T14:21:18;9.68;;;2.08;;
52494;SDS011;38405;53.212;5.660;2022-10-22T14:23:44;10.73;;;2.58;;
52494;SDS011;38405;53.212;5.660;2022-10-22T14:26:22;18.05;;;3.33;;
52494;SDS011;38405;53.212;5.660;2022-10-22T14:28:51;11.48;;;2.70;;
52494;SDS011;38405;53.212;5.660;2022-10-22T14:31:16;15.27;;;3.05;;
52494;SDS011;38405;53.212;5.660;2022-10-22T14:33:42;12.75;;;2.70;;
52494;SDS011;38405;53.212;5.660;2022-10-22T14:36:10;16.70;;;2.90;;
52494;SDS011;38405;53.212;5.660;2022-10-22T14:38:37;14.00;;;2.58;;
52494;SDS011;38405;53.212;5.660;2022-10-22T14:41:04;16.38;;;3.17;;
52494;SDS011;38405;53.212;5.660;2022-10-22T14:43:37;14.13;;;2.40;;
52494;SDS011;38405;53.212;5.660;2022-10-22T14:46:02;15.68;;;3.00;;
52494;SDS011;38405;53.212;5.660;2022-10-22T14:48:28;12.20;;;2.80;;
52494;SDS011;38405;53.212;5.660;2022-10-22T14:50:53;17.48;;;3.50;;
52494;SDS011;38405;53.212;5.660;2022-10-22T14:53:19;18.00;;;3.22;;
52494;SDS011;38405;53.212;5.660;2022-10-22T14:55:45;19.00;;;3.05;;
52494;SDS011;38405;53.212;5.660;2022-10-22T14:58:13;17.30;;;2.85;;
52494;SDS011;38405;53.212;5.660;2022-10-22T15:00:42;18.05;;;3.22;;
52494;SDS011;38405;53.212;5.660;2022-10-22T15:03:08;12.85;;;3.05;;
52494;SDS011;38405;53.212;5.660;2022-10-22T15:05:34;13.40;;;2.22;;
52494;SDS011;38405;53.212;5.660;2022-10-22T15:08:00;15.13;;;2.95;;
52494;SDS011;38405;53.212;5.660;2022-10-22T15:10:26;26.25;;;3.47;;
52494;SDS011;38405;53.212;5.660;2022-10-22T15:12:51;18.85;;;3.55;;
52494;SDS011;38405;53.212;5.660;2022-10-22T15:15:17;13.18;;;2.85;;
52494;SDS011;38405;53.212;5.660;2022-10-22T15:17:43;15.82;;;3.15;;
52494;SDS011;38405;53.212;5.660;2022-10-22T15:20:08;12.90;;;2.67;;
52494;SDS011;38405;53.212;5.660;2022-10-22T15:22:34;18.92;;;2.95;;
52494;SDS011;38405;53.212;5.660;2022-10-22T15:25:01;21.25;;;3.38;;
52494;SDS011;38405;53.212;5.660;2022-10-22T15:27:29;15.15;;;3.55;;
52494;SDS011;38405;53.212;5.660;2022-10-22T15:29:55;16.38;;;2.80;;
52494;SDS011;38405;53.212;5.660;2022-10-22T15:32:22;30.15;;;3.90;;
52494;SDS011;38405;53.212;5.660;2022-10-22T15:34:50;15.23;;;3.00;;
52494;SDS011;38405;53.212;5.660;2022-10-22T15:37:18;16.98;;;3.05;;
52494;SDS011;38405;53.212;5.660;2022-10-22T15:39:44;21.67;;;4.00;;
52494;SDS011;38405;53.212;5.660;2022-10-22T15:42:09;22.63;;;2.72;;
52494;SDS011;38405;53.212;5.660;2022-10-22T15:44:35;27.08;;;3.78;;
52494;SDS011;38405;53.212;5.660;2022-10-22T15:47:02;24.48;;;3.80;;
52494;SDS011;38405;53.212;5.660;2022-10-22T15:49:32;18.30;;;3.55;;
52494;SDS011;38405;53.212;5.660;2022-10-22T15:51:59;21.05;;;3.40;;
52494;SDS011;38405;53.212;5.660;2022-10-22T15:54:25;21.83;;;3.83;;
52494;SDS011;38405;53.212;5.660;2022-10-22T15:56:53;20.13;;;3.75;;
52494;SDS011;38405;53.212;5.660;2022-10-22T15:59:19;31.85;;;4.53;;
52494;SDS011;38405;53.212;5.660;2022-10-22T16:01:45;23.60;;;3.85;;
52494;SDS011;38405;53.212;5.660;2022-10-22T16:04:11;18.75;;;3.70;;
52494;SDS011;38405;53.212;5.660;2022-10-22T16:06:38;30.35;;;3.75;;
52494;SDS011;38405;53.212;5.660;2022-10-22T16:09:14;24.17;;;4.35;;
52494;SDS011;38405;53.212;5.660;2022-10-22T16:11:41;22.55;;;3.83;;
52494;SDS011;38405;53.212;5.660;2022-10-22T16:14:09;24.52;;;3.70;;
52494;SDS011;38405;53.212;5.660;2022-10-22T16:16:36;17.48;;;3.65;;
52494;SDS011;38405;53.212;5.660;2022-10-22T16:19:03;28.70;;;3.95;;
52494;SDS011;38405;53.212;5.660;2022-10-22T16:21:29;17.52;;;3.58;;
52494;SDS011;38405;53.212;5.660;2022-10-22T16:23:55;29.75;;;4.15;;
52494;SDS011;38405;53.212;5.660;2022-10-22T16:26:21;19.27;;;3.60;;
52494;SDS011;38405;53.212;5.660;2022-10-22T16:28:47;23.73;;;4.07;;
52494;SDS011;38405;53.212;5.660;2022-10-22T16:31:14;27.00;;;4.45;;
52494;SDS011;38405;53.212;5.660;2022-10-22T16:33:41;26.85;;;4.13;;
52494;SDS011;38405;53.212;5.660;2022-10-22T16:36:07;21.70;;;3.40;;
52494;SDS011;38405;53.212;5.660;2022-10-22T16:38:34;25.98;;;3.47;;
52494;SDS011;38405;53.212;5.660;2022-10-22T16:41:06;28.10;;;4.78;;